Time;durP1;ratioP1;P1;durP2;ratioP2;P2;SDS_P1;SDS_P2;PMS_P1;PMS_P2;Temp;Humidity;BMP_temperature;BMP_pressure;BME280_temperature;BME280_humidity;BME280_pressure;Samples;Min_cycle;Max_cycle;Signal;HPM_P1;HPM_P2
2021/12/27 00:01:20;;;;;;;2.65;1.42;;;18.30;54.90;;;;;;10383198;28;20041;-61
2021/12/27 00:06:21;;;;;;;2.65;1.58;;;18.30;54.90;;;;;;10376064;28;20046;-61
2021/12/27 00:11:22;;;;;;;1.95;1.17;;;18.30;54.90;;;;;;10376133;28;20030;-60
2021/12/27 00:16:22;;;;;;;1.90;1.27;;;18.20;55.00;;;;;;10375664;28;20484;-61
2021/12/27 00:21:23;;;;;;;2.25;1.58;;;18.30;55.70;;;;;;10374331;28;20357;-61
2021/12/27 00:26:24;;;;;;;3.88;1.50;;;18.30;54.90;;;;;;10375317;28;20030;-61
2021/12/27 00:31:24;;;;;;;2.08;1.50;;;18.30;54.80;;;;;;10375437;28;20038;-61
2021/12/27 00:36:25;;;;;;;1.45;1.27;;;18.30;54.90;;;;;;10374903;28;20519;-61
2021/12/27 00:41:27;;;;;;;2.17;1.50;;;18.20;55.10;;;;;;10375072;28;20061;-61
2021/12/27 00:46:28;;;;;;;3.38;1.55;;;18.20;55.30;;;;;;10374992;28;20419;-61
2021/12/27 00:51:28;;;;;;;1.83;1.17;;;18.20;55.30;;;;;;10374690;28;20042;-61
2021/12/27 00:56:29;;;;;;;1.88;1.38;;;18.20;55.20;;;;;;10374437;28;20140;-62
2021/12/27 01:01:30;;;;;;;1.83;1.38;;;18.20;55.00;;;;;;10381870;28;20034;-61
2021/12/27 01:06:31;;;;;;;2.17;1.42;;;18.20;54.90;;;;;;10374748;28;20045;-61
2021/12/27 01:11:45;;;;;;;2.75;1.60;;;18.30;55.10;;;;;;10374191;28;20041;-61
2021/12/27 01:16:46;;;;;;;2.47;1.50;;;18.30;55.00;;;;;;10373782;28;20357;-60
2021/12/27 01:21:47;;;;;;;2.65;1.23;;;18.20;55.10;;;;;;10373784;28;20050;-61
2021/12/27 01:26:48;;;;;;;1.90;1.35;;;18.20;55.00;;;;;;10373199;28;20472;-61
2021/12/27 01:31:48;;;;;;;1.67;1.30;;;18.20;55.10;;;;;;10373543;28;20112;-60
2021/12/27 01:36:49;;;;;;;1.95;1.30;;;18.30;55.10;;;;;;10372727;28;20045;-61
2021/12/27 01:41:52;;;;;;;2.50;1.77;;;18.20;55.10;;;;;;10373033;28;20376;-60
2021/12/27 01:46:53;;;;;;;1.77;1.35;;;18.20;55.10;;;;;;10372690;28;20504;-61
2021/12/27 01:51:54;;;;;;;2.25;1.60;;;18.20;55.10;;;;;;10373291;28;20049;-60
2021/12/27 01:56:55;;;;;;;3.13;1.75;;;18.20;55.00;;;;;;10372384;28;20122;-61
2021/12/27 02:01:55;;;;;;;1.80;1.17;;;18.20;55.10;;;;;;10381203;28;20594;-60
2021/12/27 02:06:56;;;;;;;1.92;1.20;;;18.20;55.70;;;;;;10371940;28;20025;-61
2021/12/27 02:11:57;;;;;;;2.63;1.73;;;18.20;54.90;;;;;;10372056;28;20037;-61
2021/12/27 02:16:57;;;;;;;2.17;1.58;;;18.30;55.00;;;;;;10371654;28;20018;-61
2021/12/27 02:21:58;;;;;;;2.50;1.67;;;18.30;55.60;;;;;;10371473;28;20052;-61
2021/12/27 02:26:59;;;;;;;2.08;1.20;;;18.30;55.00;;;;;;10371391;28;20113;-62
2021/12/27 02:32:00;;;;;;;1.80;1.52;;;18.20;55.00;;;;;;10371435;28;20042;-61
2021/12/27 02:37:01;;;;;;;2.13;1.40;;;18.30;55.60;;;;;;10371358;28;20054;-60
2021/12/27 02:42:03;;;;;;;1.52;1.23;;;18.30;55.00;;;;;;10371291;28;20038;-61
2021/12/27 02:47:03;;;;;;;2.47;1.40;;;18.30;54.90;;;;;;10370948;28;20407;-61
2021/12/27 02:52:05;;;;;;;1.75;1.30;;;18.30;55.00;;;;;;10371048;28;20048;-61
2021/12/27 02:57:07;;;;;;;2.60;1.67;;;18.30;55.00;;;;;;10369340;28;20030;-61
2021/12/27 03:02:08;;;;;;;2.88;1.55;;;18.30;55.00;;;;;;10381699;28;20472;-61
2021/12/27 03:07:08;;;;;;;2.35;1.70;;;18.20;55.00;;;;;;10370365;28;20026;-61
2021/12/27 03:12:12;;;;;;;2.47;1.70;;;18.20;55.30;;;;;;10369196;28;20046;-62
2021/12/27 03:17:13;;;;;;;1.60;1.15;;;18.10;55.20;;;;;;10375311;28;20073;-60
2021/12/27 03:22:14;;;;;;;1.90;1.35;;;18.10;55.30;;;;;;10376612;28;20196;-61
2021/12/27 03:27:14;;;;;;;2.03;1.40;;;18.10;55.30;;;;;;10377635;28;20053;-61
2021/12/27 03:32:17;;;;;;;1.83;1.02;;;18.10;55.30;;;;;;10378077;28;20042;-60
2021/12/27 03:37:23;;;;;;;2.30;1.67;;;18.10;55.30;;;;;;10377485;28;20073;-60
2021/12/27 03:42:23;;;;;;;2.50;1.63;;;18.10;55.20;;;;;;10376262;28;20125;-61
2021/12/27 03:47:24;;;;;;;2.53;1.70;;;18.10;55.30;;;;;;10377105;28;20120;-60
2021/12/27 03:52:25;;;;;;;2.00;1.30;;;18.10;55.30;;;;;;10377316;28;20037;-61
2021/12/27 03:57:26;;;;;;;2.25;1.45;;;18.10;55.30;;;;;;10376917;28;20112;-60
2021/12/27 04:02:28;;;;;;;2.90;1.55;;;18.20;55.20;;;;;;10386418;28;20112;-60
2021/12/27 04:07:33;;;;;;;2.65;1.60;;;18.20;55.10;;;;;;10376697;28;20053;-61
2021/12/27 04:12:35;;;;;;;2.75;1.40;;;18.20;55.20;;;;;;10376422;28;20034;-61
2021/12/27 04:17:36;;;;;;;2.42;1.10;;;18.20;55.20;;;;;;10376488;28;20041;-60
2021/12/27 04:22:37;;;;;;;2.67;1.48;;;18.20;55.20;;;;;;10375662;28;20033;-60
2021/12/27 04:27:37;;;;;;;2.42;1.70;;;18.20;55.30;;;;;;10374976;28;20044;-61
2021/12/27 04:32:39;;;;;;;1.88;1.30;;;18.20;55.20;;;;;;10375963;28;20153;-61
2021/12/27 04:37:41;;;;;;;2.25;1.27;;;18.20;55.10;;;;;;10375270;28;20046;-60
2021/12/27 04:42:48;;;;;;;2.85;1.30;;;18.20;55.10;;;;;;10375312;28;20488;-60
2021/12/27 04:47:49;;;;;;;2.20;1.45;;;18.20;55.20;;;;;;10374654;28;20092;-60
2021/12/27 04:52:53;;;;;;;1.83;1.27;;;18.20;55.20;;;;;;10374857;28;20041;-61
2021/12/27 04:57:54;;;;;;;1.98;1.20;;;18.20;55.00;;;;;;10373963;28;20084;-60
2021/12/27 05:02:55;;;;;;;1.70;1.20;;;18.20;55.10;;;;;;10373778;28;20932;-60
2021/12/27 05:07:57;;;;;;;2.33;1.45;;;18.20;55.10;;;;;;10372965;28;20120;-60
2021/12/27 05:12:58;;;;;;;2.65;1.45;;;18.30;55.10;;;;;;10373416;28;20045;-60
2021/12/27 05:17:59;;;;;;;1.25;0.90;;;18.30;55.10;;;;;;10372854;28;20396;-60
2021/12/27 05:22:59;;;;;;;2.25;1.08;;;18.20;55.10;;;;;;10372901;28;20045;-60
2021/12/27 05:28:00;;;;;;;2.63;1.55;;;18.30;55.10;;;;;;10373129;28;20109;-60
2021/12/27 05:33:01;;;;;;;2.20;1.23;;;18.30;55.00;;;;;;10372675;28;20038;-61
2021/12/27 05:38:02;;;;;;;2.40;1.70;;;18.30;55.20;;;;;;10370919;28;20038;-61
2021/12/27 05:43:03;;;;;;;1.90;1.30;;;18.30;55.30;;;;;;10371625;28;20046;-60
2021/12/27 05:48:06;;;;;;;2.10;1.45;;;18.20;55.40;;;;;;10372861;28;20037;-60
2021/12/27 05:53:06;;;;;;;2.35;1.58;;;18.20;55.50;;;;;;10372638;28;20289;-60
2021/12/27 05:58:07;;;;;;;2.72;1.65;;;18.30;55.40;;;;;;10372294;28;20083;-60
2021/12/27 06:03:08;;;;;;;4.13;2.25;;;18.30;55.50;;;;;;10383113;28;20038;-59
2021/12/27 06:08:08;;;;;;;4.45;1.92;;;18.40;55.80;;;;;;10372236;28;20105;-61
2021/12/27 06:13:09;;;;;;;7.05;1.65;;;18.40;56.10;;;;;;10372191;28;20050;-60
2021/12/27 06:18:10;;;;;;;8.65;2.42;;;18.50;56.70;;;;;;10371950;28;20026;-61
2021/12/27 06:23:10;;;;;;;5.15;2.03;;;18.50;58.30;;;;;;10371811;28;20117;-60
2021/12/27 06:28:12;;;;;;;5.88;2.13;;;18.40;58.80;;;;;;10371579;28;20034;-59
2021/12/27 06:33:12;;;;;;;8.88;2.05;;;18.40;59.80;;;;;;10371475;28;20037;-59
2021/12/27 06:38:13;;;;;;;9.00;2.42;;;18.40;59.20;;;;;;10370339;28;20092;-59
2021/12/27 06:43:14;;;;;;;6.22;2.17;;;18.40;59.20;;;;;;10371117;28;20049;-59
2021/12/27 06:48:15;;;;;;;7.85;2.25;;;18.50;59.10;;;;;;10370805;28;20038;-59
2021/12/27 06:53:16;;;;;;;10.38;2.50;;;18.50;59.40;;;;;;10379743;28;20045;-61
2021/12/27 06:58:16;;;;;;;15.20;3.15;;;18.40;59.20;;;;;;10378605;28;20045;-60
2021/12/27 07:03:17;;;;;;;15.52;3.30;;;18.30;59.30;;;;;;10365643;28;20049;-61
2021/12/27 07:08:19;;;;;;;14.05;3.58;;;18.20;59.80;;;;;;10377939;28;20038;-60
2021/12/27 07:13:19;;;;;;;14.63;3.67;;;18.20;60.00;;;;;;10374981;28;20450;-60
2021/12/27 07:18:23;;;;;;;9.48;3.33;;;18.20;59.80;;;;;;10374505;28;20196;-60
2021/12/27 07:23:24;;;;;;;12.63;3.03;;;18.30;59.60;;;;;;10375473;28;20479;-60
2021/12/27 07:28:25;;;;;;;12.15;3.40;;;18.30;60.30;;;;;;10375545;28;20030;-61
2021/12/27 07:33:25;;;;;;;14.18;3.25;;;18.30;59.20;;;;;;10377561;28;20040;-61
2021/12/27 07:38:26;;;;;;;17.15;3.47;;;18.20;59.00;;;;;;10377241;28;20121;-62
2021/12/27 07:43:27;;;;;;;12.68;2.92;;;18.20;59.30;;;;;;10376936;28;20042;-62
2021/12/27 07:48:27;;;;;;;16.58;2.85;;;18.30;58.60;;;;;;10377158;28;20030;-61
2021/12/27 07:53:28;;;;;;;16.77;3.72;;;18.30;58.20;;;;;;10377513;28;20479;-62
2021/12/27 07:58:29;;;;;;;14.90;3.25;;;18.30;58.30;;;;;;10375973;28;20057;-61
2021/12/27 08:03:30;;;;;;;11.20;3.17;;;18.20;58.60;;;;;;10374103;28;20034;-61
2021/12/27 08:08:30;;;;;;;10.43;2.85;;;18.10;58.90;;;;;;10359603;28;20439;-61
2021/12/27 08:13:31;;;;;;;10.40;2.95;;;18.10;59.60;;;;;;10375483;28;20038;-62
2021/12/27 08:18:32;;;;;;;11.23;2.75;;;18.10;59.00;;;;;;10375455;28;20026;-61
2021/12/27 08:23:33;;;;;;;17.77;3.70;;;18.10;59.80;;;;;;10375981;28;20092;-61
2021/12/27 08:28:33;;;;;;;17.98;3.10;;;18.00;59.00;;;;;;10376167;28;20415;-62
2021/12/27 08:33:34;;;;;;;13.45;3.17;;;18.00;59.70;;;;;;10375150;28;20037;-61
2021/12/27 08:38:35;;;;;;;18.08;3.42;;;18.00;59.60;;;;;;10375473;28;20074;-60
2021/12/27 08:43:36;;;;;;;19.73;3.85;;;18.00;59.40;;;;;;10375263;28;20034;-61
2021/12/27 08:48:37;;;;;;;22.55;3.78;;;18.00;59.50;;;;;;10375855;28;20041;-62
2021/12/27 08:53:39;;;;;;;23.60;4.43;;;18.00;59.80;;;;;;10376357;28;20034;-61
2021/12/27 08:58:40;;;;;;;16.95;3.55;;;18.10;60.00;;;;;;10375205;28;20675;-60
2021/12/27 09:03:41;;;;;;;24.15;4.25;;;18.00;60.30;;;;;;10374254;28;20128;-61
2021/12/27 09:08:43;;;;;;;15.00;3.33;;;18.00;60.60;;;;;;10373415;28;20038;-60
2021/12/27 09:13:44;;;;;;;17.75;4.68;;;18.10;60.40;;;;;;10372447;28;20044;-59
2021/12/27 09:18:44;;;;;;;14.50;3.20;;;18.10;60.60;;;;;;10373682;28;20048;-61
2021/12/27 09:23:45;;;;;;;10.73;3.90;;;18.00;60.40;;;;;;10374419;28;20034;-60
2021/12/27 09:28:46;;;;;;;13.45;3.40;;;17.90;60.60;;;;;;10361545;28;20026;-61
2021/12/27 09:33:47;;;;;;;13.70;3.72;;;17.90;60.80;;;;;;10374448;28;20057;-61
2021/12/27 09:38:48;;;;;;;15.88;3.70;;;17.80;61.10;;;;;;10360343;28;20100;-61
2021/12/27 09:43:51;;;;;;;11.80;4.13;;;17.90;60.90;;;;;;10372808;28;20495;-62
2021/12/27 09:48:56;;;;;;;12.05;3.00;;;17.90;61.40;;;;;;10360516;28;20479;-62
2021/12/27 09:53:57;;;;;;;12.50;3.08;;;17.90;61.50;;;;;;10372802;28;20092;-62
2021/12/27 09:58:58;;;;;;;18.05;3.75;;;17.90;61.30;;;;;;10368452;28;20038;-62
2021/12/27 10:04:02;;;;;;;9.55;2.88;;;17.90;61.20;;;;;;10387183;28;20529;-62
2021/12/27 10:09:05;;;;;;;8.02;2.70;;;17.90;61.10;;;;;;10371851;28;20369;-61
2021/12/27 10:14:13;;;;;;;7.55;3.17;;;17.90;61.20;;;;;;10372024;28;20456;-62
2021/12/27 10:19:17;;;;;;;7.20;3.10;;;17.90;61.30;;;;;;10371673;28;20096;-62
2021/12/27 10:24:27;;;;;;;12.23;3.40;;;17.80;61.30;;;;;;10370599;28;20038;-61
2021/12/27 10:29:41;;;;;;;11.63;2.92;;;17.80;60.90;;;;;;10371315;28;20064;-61
2021/12/27 10:34:48;;;;;;;10.65;3.03;;;17.90;60.50;;;;;;10370128;28;20052;-61
2021/12/27 10:40:01;;;;;;;8.48;2.40;;;17.90;60.30;;;;;;10370103;28;20053;-61
2021/12/27 10:45:16;;;;;;;6.65;2.42;;;18.00;60.20;;;;;;10367930;28;20040;-61
2021/12/27 10:50:23;;;;;;;8.65;2.60;;;18.00;60.00;;;;;;10370366;28;20045;-61
2021/12/27 10:55:43;;;;;;;7.55;2.65;;;18.00;60.10;;;;;;10368122;28;20053;-61
2021/12/27 11:00:47;;;;;;;5.60;2.30;;;17.90;60.30;;;;;;10355703;28;20034;-61
2021/12/27 11:05:48;;;;;;;4.50;2.10;;;17.90;60.30;;;;;;10370548;28;20204;-61
2021/12/27 11:10:49;;;;;;;9.43;2.25;;;18.00;60.10;;;;;;10369690;28;20026;-60
2021/12/27 11:15:50;;;;;;;9.63;2.30;;;18.10;60.80;;;;;;10372192;28;20030;-60
2021/12/27 11:20:56;;;;;;;11.90;2.35;;;18.20;61.30;;;;;;10371541;28;20372;-60
2021/12/27 11:26:10;;;;;;;9.10;2.72;;;18.10;60.80;;;;;;10370934;28;20046;-61
2021/12/27 11:31:28;;;;;;;7.65;2.20;;;18.10;62.00;;;;;;10370742;28;20120;-60
2021/12/27 11:36:39;;;;;;;7.70;2.45;;;18.00;62.10;;;;;;10372421;28;20034;-61
2021/12/27 11:41:40;;;;;;;9.63;2.22;;;18.00;62.30;;;;;;10365999;28;20133;-60
2021/12/27 11:46:59;;;;;;;9.45;2.35;;;18.00;62.50;;;;;;10378676;28;20030;-61
2021/12/27 11:52:27;;;;;;;8.97;2.63;;;17.90;62.00;;;;;;10378519;28;20046;-60
2021/12/27 11:57:42;;;;;;;15.43;2.00;;;17.90;62.30;;;;;;10377627;28;20041;-61
2021/12/27 12:02:54;;;;;;;9.90;1.85;;;17.90;62.10;;;;;;10387716;28;20038;-60
2021/12/27 12:07:56;;;;;;;7.70;2.30;;;17.80;62.00;;;;;;10377922;28;20038;-61
2021/12/27 12:13:41;;;;;;;11.40;2.63;;;17.80;61.60;;;;;;10377461;28;20050;-62
2021/12/27 12:19:07;;;;;;;8.45;2.25;;;17.70;61.50;;;;;;10377158;28;20041;-61
2021/12/27 12:24:11;;;;;;;9.07;2.70;;;17.70;61.20;;;;;;10364144;28;20129;-61
2021/12/27 12:29:11;;;;;;;17.40;2.70;;;17.80;61.10;;;;;;10376410;28;20122;-61
2021/12/27 12:34:19;;;;;;;11.93;2.50;;;17.90;60.90;;;;;;10375327;28;20136;-61
2021/12/27 12:39:22;;;;;;;10.52;2.55;;;17.90;60.40;;;;;;10372729;28;20369;-60
2021/12/27 12:44:23;;;;;;;11.57;2.17;;;18.00;60.10;;;;;;10371008;28;20042;-61
2021/12/27 12:49:23;;;;;;;8.13;1.90;;;18.00;59.90;;;;;;10372975;28;20556;-61
2021/12/27 12:54:34;;;;;;;7.32;2.25;;;18.10;59.80;;;;;;10374358;28;20134;-61
2021/12/27 12:59:51;;;;;;;9.88;2.55;;;18.00;59.60;;;;;;10376285;28;20036;-62
2021/12/27 13:04:55;;;;;;;6.47;2.05;;;18.00;59.60;;;;;;10381506;28;20037;-61
2021/12/27 13:09:56;;;;;;;8.25;1.77;;;18.10;59.50;;;;;;10374656;28;20064;-60
2021/12/27 13:15:06;;;;;;;7.45;2.10;;;18.00;59.50;;;;;;10374248;28;20037;-62
2021/12/27 13:20:11;;;;;;;6.60;1.98;;;18.10;59.30;;;;;;10374163;28;20384;-60
2021/12/27 13:25:35;;;;;;;6.15;1.98;;;18.10;59.10;;;;;;10361013;28;20033;-61
2021/12/27 13:31:09;;;;;;;3.70;2.03;;;18.10;59.10;;;;;;10373452;28;20265;-61
2021/12/27 13:36:24;;;;;;;6.07;1.88;;;18.10;58.90;;;;;;10373580;28;20033;-61
2021/12/27 13:41:29;;;;;;;4.55;1.65;;;18.10;58.90;;;;;;10372019;28;20081;-61
2021/12/27 13:46:34;;;;;;;5.82;1.80;;;18.20;58.70;;;;;;10371807;28;20121;-61
2021/12/27 13:51:37;;;;;;;4.65;1.50;;;18.20;58.60;;;;;;10373045;28;20031;-61
2021/12/27 13:56:39;;;;;;;5.90;1.63;;;18.20;58.70;;;;;;10372496;28;20061;-62
2021/12/27 14:01:56;;;;;;;8.85;1.60;;;18.10;58.70;;;;;;10383665;28;20034;-61
2021/12/27 14:07:05;;;;;;;5.75;1.85;;;18.10;58.80;;;;;;10370935;28;20518;-62
2021/12/27 14:12:11;;;;;;;5.68;1.73;;;18.10;58.70;;;;;;10372364;28;20112;-62
2021/12/27 14:17:26;;;;;;;5.97;1.80;;;18.20;58.80;;;;;;10370680;28;20038;-62
2021/12/27 14:22:52;;;;;;;6.68;1.98;;;18.10;58.90;;;;;;10369439;28;20091;-62
2021/12/27 14:27:57;;;;;;;11.90;2.63;;;18.20;59.10;;;;;;10371822;28;20026;-62
2021/12/27 14:32:59;;;;;;;8.98;1.58;;;18.20;59.10;;;;;;10371910;28;20109;-62
2021/12/27 14:38:18;;;;;;;11.25;2.45;;;18.20;59.00;;;;;;10371451;28;20475;-62
2021/12/27 14:43:25;;;;;;;14.23;2.42;;;18.30;59.00;;;;;;10370690;28;20148;-62
2021/12/27 14:48:26;;;;;;;14.48;2.78;;;18.30;59.10;;;;;;10371305;28;20034;-62
2021/12/27 14:53:27;;;;;;;16.23;2.97;;;18.30;59.30;;;;;;10371099;28;20030;-61
2021/12/27 14:58:27;;;;;;;15.30;3.28;;;18.30;59.40;;;;;;10369941;28;20125;-62
2021/12/27 15:03:30;;;;;;;16.05;2.72;;;18.20;59.50;;;;;;10371050;28;20030;-61
2021/12/27 15:08:31;;;;;;;12.38;3.13;;;18.20;59.70;;;;;;10370224;28;20040;-62
2021/12/27 15:13:33;;;;;;;14.25;2.63;;;18.20;59.50;;;;;;10377512;28;20154;-61
2021/12/27 15:18:34;;;;;;;16.10;3.00;;;18.20;59.60;;;;;;10377721;28;20042;-61
2021/12/27 15:23:36;;;;;;;19.05;3.63;;;18.20;59.90;;;;;;10377559;28;20482;-61
2021/12/27 15:28:37;;;;;;;13.85;3.45;;;18.20;60.00;;;;;;10370836;28;20526;-62
2021/12/27 15:33:37;;;;;;;10.20;3.08;;;18.30;60.20;;;;;;10365924;28;20045;-61
2021/12/27 15:38:38;;;;;;;14.32;3.20;;;18.20;60.10;;;;;;10374182;28;20509;-61
2021/12/27 15:43:39;;;;;;;17.02;3.38;;;18.20;60.20;;;;;;10362366;28;20113;-61
2021/12/27 15:48:40;;;;;;;15.10;4.55;;;18.20;60.30;;;;;;10374832;28;20034;-62
2021/12/27 15:53:42;;;;;;;13.23;2.95;;;18.20;60.30;;;;;;10376512;28;20549;-61
2021/12/27 15:58:42;;;;;;;14.45;2.72;;;18.10;60.40;;;;;;10376355;28;20499;-61
2021/12/27 16:03:43;;;;;;;10.80;2.88;;;18.10;60.40;;;;;;10379253;28;20026;-62
2021/12/27 16:08:44;;;;;;;18.33;3.20;;;18.20;60.30;;;;;;10376178;28;20149;-62
2021/12/27 16:13:48;;;;;;;7.90;2.20;;;18.20;60.40;;;;;;10375999;28;20034;-62
2021/12/27 16:18:48;;;;;;;11.45;2.38;;;18.20;60.50;;;;;;10376135;28;20384;-62
2021/12/27 16:23:50;;;;;;;8.43;1.90;;;18.20;60.50;;;;;;10374231;28;20044;-61
2021/12/27 16:28:52;;;;;;;11.07;2.83;;;18.20;61.10;;;;;;10376027;28;20034;-61
2021/12/27 16:33:52;;;;;;;8.18;2.92;;;18.20;60.50;;;;;;10375430;28;20400;-61
2021/12/27 16:38:53;;;;;;;6.50;1.75;;;18.20;60.50;;;;;;10373436;28;20046;-61
2021/12/27 16:43:54;;;;;;;6.80;1.98;;;18.20;60.70;;;;;;10371014;28;20033;-60
2021/12/27 16:48:54;;;;;;;7.57;2.97;;;18.20;60.70;;;;;;10374341;28;20038;-61
2021/12/27 16:53:55;;;;;;;6.85;1.98;;;18.20;60.70;;;;;;10375037;28;20384;-62
2021/12/27 16:58:56;;;;;;;9.73;2.55;;;18.20;61.10;;;;;;10374214;28;20034;-61
2021/12/27 17:03:57;;;;;;;12.00;2.65;;;18.20;62.00;;;;;;10385450;28;20038;-61
2021/12/27 17:08:57;;;;;;;7.32;2.22;;;18.10;61.60;;;;;;10350826;28;20026;-60
2021/12/27 17:13:58;;;;;;;9.18;2.92;;;18.10;61.90;;;;;;10342139;28;20031;-61
2021/12/27 17:18:59;;;;;;;10.27;2.60;;;18.20;61.90;;;;;;10372506;28;20038;-61
2021/12/27 17:24:01;;;;;;;6.57;2.35;;;18.30;63.90;;;;;;10372221;28;20033;-60
2021/12/27 17:29:05;;;;;;;6.82;2.00;;;18.50;64.00;;;;;;10373280;28;20026;-60
2021/12/27 17:34:07;;;;;;;6.25;2.92;;;18.60;64.60;;;;;;10372503;28;20096;-61
2021/12/27 17:39:07;;;;;;;5.82;2.00;;;18.50;64.10;;;;;;10372758;28;20045;-58
2021/12/27 17:44:08;;;;;;;3.53;1.98;;;18.50;64.30;;;;;;10373032;28;20034;-57
2021/12/27 17:49:10;;;;;;;8.00;2.67;;;18.40;64.40;;;;;;10371798;28;20030;-63
2021/12/27 17:54:11;;;;;;;10.43;2.97;;;18.30;63.40;;;;;;10370336;28;20038;-62
2021/12/27 17:59:11;;;;;;;11.73;2.95;;;18.10;62.90;;;;;;10343605;28;20534;-61
2021/12/27 18:04:12;;;;;;;13.85;2.70;;;18.00;63.10;;;;;;10382446;28;20468;-62
2021/12/27 18:09:13;;;;;;;8.63;2.47;;;17.90;63.60;;;;;;10371999;28;20034;-61
2021/12/27 18:14:16;;;;;;;8.88;3.08;;;18.00;63.10;;;;;;10370917;28;20029;-61
2021/12/27 18:19:16;;;;;;;8.95;2.60;;;18.10;63.10;;;;;;10371836;28;20041;-62
2021/12/27 18:24:17;;;;;;;7.03;2.25;;;18.10;62.80;;;;;;10371674;28;20034;-61
2021/12/27 18:29:18;;;;;;;6.93;2.75;;;18.10;62.80;;;;;;10371578;28;20034;-61
2021/12/27 18:34:19;;;;;;;8.85;2.40;;;18.10;62.80;;;;;;10371744;28;20037;-61
2021/12/27 18:39:20;;;;;;;8.18;2.88;;;18.10;62.60;;;;;;10370661;28;20053;-61
2021/12/27 18:44:20;;;;;;;12.40;2.80;;;18.00;62.60;;;;;;10372998;28;20096;-61
2021/12/27 18:49:21;;;;;;;11.52;2.83;;;18.10;62.60;;;;;;10384642;28;20030;-60
2021/12/27 18:54:23;;;;;;;10.27;2.80;;;18.10;62.60;;;;;;10384772;28;20048;-63
2021/12/27 18:59:25;;;;;;;8.80;2.40;;;18.10;62.40;;;;;;10383529;28;20022;-62
2021/12/27 19:04:26;;;;;;;5.40;1.63;;;18.20;62.50;;;;;;10367831;28;20117;-63
2021/12/27 19:09:27;;;;;;;8.80;2.05;;;18.30;62.00;;;;;;10354257;28;20531;-62
2021/12/27 19:14:27;;;;;;;11.65;1.98;;;18.30;62.00;;;;;;10368037;28;20034;-62
2021/12/27 19:19:28;;;;;;;12.95;2.63;;;18.20;62.10;;;;;;10381495;28;20026;-62
2021/12/27 19:24:29;;;;;;;7.82;2.00;;;18.10;62.20;;;;;;10381071;28;20053;-62
2021/12/27 19:29:30;;;;;;;9.00;2.00;;;18.00;62.50;;;;;;10382376;28;20054;-62
2021/12/27 19:34:31;;;;;;;6.90;2.17;;;18.00;62.60;;;;;;10377501;28;20034;-62
2021/12/27 19:39:32;;;;;;;6.45;2.13;;;18.00;62.70;;;;;;10354002;28;20178;-62
2021/12/27 19:44:33;;;;;;;3.35;1.85;;;18.00;62.60;;;;;;10371355;28;20099;-62
2021/12/27 19:49:34;;;;;;;6.55;1.90;;;18.00;62.50;;;;;;10383165;28;20025;-62
2021/12/27 19:54:35;;;;;;;3.33;1.65;;;18.00;62.40;;;;;;10382905;28;20038;-62
2021/12/27 19:59:35;;;;;;;4.03;1.60;;;18.10;62.40;;;;;;10377044;28;20305;-62
2021/12/27 20:04:36;;;;;;;5.30;1.92;;;18.10;62.30;;;;;;10376656;28;20052;-62
2021/12/27 20:09:37;;;;;;;3.63;1.80;;;18.10;62.20;;;;;;10376032;28;20030;-62
2021/12/27 20:14:37;;;;;;;6.22;2.20;;;18.10;62.10;;;;;;10376627;28;20034;-62
2021/12/27 20:19:38;;;;;;;3.53;1.75;;;18.10;62.10;;;;;;10375400;28;20539;-62
2021/12/27 20:24:41;;;;;;;5.65;2.22;;;18.20;62.00;;;;;;10374455;28;20036;-62
2021/12/27 20:29:42;;;;;;;5.88;1.65;;;18.20;61.90;;;;;;10375090;28;20507;-61
2021/12/27 20:34:44;;;;;;;4.55;1.67;;;18.30;61.90;;;;;;10374112;28;20034;-61
2021/12/27 20:39:45;;;;;;;3.42;1.65;;;18.20;61.90;;;;;;10370807;28;20496;-62
2021/12/27 20:44:46;;;;;;;4.22;1.85;;;18.20;61.90;;;;;;10371612;28;20030;-62
2021/12/27 20:49:46;;;;;;;4.88;1.50;;;18.20;61.90;;;;;;10370920;28;20057;-63
2021/12/27 20:54:47;;;;;;;3.50;1.63;;;18.20;61.80;;;;;;10370247;28;20045;-62
2021/12/27 20:59:48;;;;;;;3.20;1.30;;;18.10;61.60;;;;;;10371873;28;20029;-62
2021/12/27 21:04:49;;;;;;;3.72;1.52;;;18.10;61.60;;;;;;10372325;28;20030;-63
2021/12/27 21:09:49;;;;;;;3.95;1.60;;;18.10;61.40;;;;;;10372539;28;20071;-62
2021/12/27 21:14:51;;;;;;;5.40;1.60;;;18.20;61.20;;;;;;10372908;28;20411;-62
2021/12/27 21:19:51;;;;;;;2.92;1.83;;;18.20;61.00;;;;;;10374221;28;20033;-62
2021/12/27 21:24:52;;;;;;;3.50;2.08;;;18.20;60.90;;;;;;10373527;28;20042;-62
2021/12/27 21:29:53;;;;;;;2.60;1.58;;;18.20;60.80;;;;;;10373982;28;20121;-62
2021/12/27 21:34:53;;;;;;;4.07;1.25;;;18.20;60.70;;;;;;10373371;28;20172;-62
2021/12/27 21:39:55;;;;;;;3.85;1.65;;;18.20;60.60;;;;;;10373325;28;20052;-62
2021/12/27 21:44:56;;;;;;;3.72;1.80;;;18.20;60.70;;;;;;10373087;28;20113;-61
2021/12/27 21:49:57;;;;;;;2.88;1.42;;;18.20;60.60;;;;;;10372902;28;20038;-62
2021/12/27 21:54:58;;;;;;;5.03;1.77;;;18.20;60.50;;;;;;10372795;28;20104;-62
2021/12/27 21:59:59;;;;;;;3.78;1.27;;;18.20;60.60;;;;;;10377950;28;20036;-62
2021/12/27 22:04:59;;;;;;;3.33;1.63;;;18.20;60.40;;;;;;10379173;28;20046;-62
2021/12/27 22:10:04;;;;;;;3.50;1.42;;;18.20;60.40;;;;;;10371367;28;20486;-61
2021/12/27 22:15:09;;;;;;;3.70;1.65;;;18.10;60.40;;;;;;10372216;28;20034;-61
2021/12/27 22:20:13;;;;;;;3.17;1.60;;;18.20;60.30;;;;;;10371649;28;20037;-60
2021/12/27 22:25:14;;;;;;;2.30;1.42;;;18.20;60.30;;;;;;10371593;28;20049;-61
2021/12/27 22:30:15;;;;;;;2.40;1.00;;;18.20;60.10;;;;;;10371904;28;20150;-62
2021/12/27 22:35:16;;;;;;;2.75;1.52;;;18.20;60.00;;;;;;10371361;28;20049;-61
2021/12/27 22:40:17;;;;;;;3.30;1.63;;;18.20;59.90;;;;;;10371623;28;20057;-62
2021/12/27 22:45:18;;;;;;;3.20;1.30;;;18.20;59.90;;;;;;10371265;28;20069;-62
2021/12/27 22:50:23;;;;;;;3.08;1.33;;;18.20;59.90;;;;;;10371391;28;20525;-62
2021/12/27 22:55:29;;;;;;;2.55;1.35;;;18.20;59.80;;;;;;10371425;28;20145;-62
2021/12/27 23:00:39;;;;;;;1.30;1.00;;;18.20;59.80;;;;;;10379076;28;20087;-61
2021/12/27 23:05:40;;;;;;;3.25;1.50;;;18.20;59.70;;;;;;10371138;28;20038;-62
2021/12/27 23:10:42;;;;;;;2.03;1.23;;;18.20;59.80;;;;;;10369881;28;20105;-63
2021/12/27 23:15:44;;;;;;;2.25;1.20;;;18.10;59.80;;;;;;10385907;28;20403;-61
2021/12/27 23:20:44;;;;;;;2.40;1.15;;;18.20;59.70;;;;;;10371061;28;20045;-62
2021/12/27 23:25:45;;;;;;;1.38;1.13;;;18.20;59.70;;;;;;10370579;28;20226;-61
2021/12/27 23:30:48;;;;;;;2.80;1.27;;;18.20;59.60;;;;;;10370527;28;20437;-61
2021/12/27 23:35:51;;;;;;;2.83;1.35;;;18.20;59.50;;;;;;10377834;28;20488;-61
2021/12/27 23:40:55;;;;;;;1.92;1.00;;;18.20;59.40;;;;;;10377823;28;20369;-61
2021/12/27 23:45:56;;;;;;;1.55;1.10;;;18.30;59.40;;;;;;10377767;28;20088;-61
2021/12/27 23:50:58;;;;;;;3.08;1.45;;;18.30;59.30;;;;;;10377744;28;20522;-62
2021/12/27 23:55:58;;;;;;;2.28;1.50;;;18.30;59.30;;;;;;10377279;28;20081;-61
